Time;durP1;ratioP1;P1;durP2;ratioP2;P2;SDS_P1;SDS_P2;PMS_P1;PMS_P2;Temp;Humidity;BMP_temperature;BMP_pressure;BME280_temperature;BME280_humidity;BME280_pressure;Samples;Min_cycle;Max_cycle;Signal;HPM_P1;HPM_P2
2023/06/30 00:02:26;;;;;;;3.77;3.37;;;19.90;99.90;;;;;;5072914;28;20473;-71
2023/06/30 00:04:52;;;;;;;4.00;3.60;;;19.90;99.90;;;;;;5072721;28;20461;-70
2023/06/30 00:07:21;;;;;;;4.07;3.77;;;19.90;99.90;;;;;;5072537;28;20475;-70
2023/06/30 00:09:50;;;;;;;3.73;3.43;;;19.90;99.90;;;;;;5072826;28;20480;-70
2023/06/30 00:12:17;;;;;;;3.97;3.57;;;19.90;99.90;;;;;;5072510;28;20461;-70
2023/06/30 00:14:43;;;;;;;4.00;3.60;;;19.90;99.90;;;;;;5072682;28;20451;-70
2023/06/30 00:17:10;;;;;;;3.90;3.60;;;19.90;99.90;;;;;;5072086;28;20913;-70
2023/06/30 00:19:37;;;;;;;3.67;3.37;;;19.80;99.90;;;;;;5072466;28;20481;-71
2023/06/30 00:22:04;;;;;;;4.20;3.80;;;19.90;99.90;;;;;;5072829;28;20461;-71
2023/06/30 00:24:32;;;;;;;3.83;3.53;;;19.90;99.90;;;;;;5072381;28;20954;-71
2023/06/30 00:26:59;;;;;;;4.60;3.67;;;19.90;99.90;;;;;;5071870;28;20505;-71
2023/06/30 00:29:26;;;;;;;8.13;4.60;;;19.90;99.90;;;;;;5072382;28;20455;-71
2023/06/30 00:31:53;;;;;;;3.53;3.23;;;19.90;99.90;;;;;;5072203;28;20452;-71
2023/06/30 00:34:19;;;;;;;4.30;3.07;;;19.80;99.90;;;;;;5072285;28;20466;-71
2023/06/30 00:36:46;;;;;;;3.80;3.50;;;19.80;99.90;;;;;;5071389;28;20459;-71
2023/06/30 00:39:13;;;;;;;4.60;4.10;;;19.80;99.90;;;;;;5072208;28;20489;-71
2023/06/30 00:41:42;;;;;;;3.60;3.30;;;19.70;99.90;;;;;;5072222;28;20965;-71
2023/06/30 00:44:08;;;;;;;3.80;3.50;;;19.70;99.90;;;;;;5072029;28;20466;-71
2023/06/30 00:46:35;;;;;;;5.93;4.30;;;19.70;99.90;;;;;;5071334;28;20951;-71
2023/06/30 00:49:02;;;;;;;5.30;3.87;;;19.60;99.90;;;;;;5071931;28;20454;-71
2023/06/30 00:51:29;;;;;;;4.03;3.73;;;19.60;99.90;;;;;;5072032;28;20459;-71
2023/06/30 00:53:56;;;;;;;3.60;3.30;;;19.60;99.90;;;;;;5071829;28;20463;-71
2023/06/30 00:56:23;;;;;;;4.27;3.37;;;19.50;99.90;;;;;;5071324;28;20458;-71
2023/06/30 00:58:52;;;;;;;4.17;3.60;;;19.50;99.90;;;;;;5071736;28;20869;-71
2023/06/30 01:01:30;;;;;;;4.90;3.67;;;19.40;99.90;;;;;;5071620;28;20468;-71
2023/06/30 01:04:07;;;;;;;5.13;3.80;;;19.40;99.90;;;;;;5071503;28;20473;-71
2023/06/30 01:06:44;;;;;;;4.53;4.13;;;19.30;99.90;;;;;;5071085;28;20495;-71
2023/06/30 01:09:16;;;;;;;3.97;3.53;;;19.30;99.90;;;;;;5071691;28;20552;-71
2023/06/30 01:11:43;;;;;;;3.73;3.43;;;19.30;99.90;;;;;;5071783;28;20459;-71
2023/06/30 01:14:16;;;;;;;6.13;3.47;;;19.20;99.90;;;;;;5071640;28;20472;-71
2023/06/30 01:16:44;;;;;;;3.90;3.60;;;19.20;99.90;;;;;;5071078;28;20482;-71
2023/06/30 01:19:22;;;;;;;3.73;3.43;;;19.20;99.90;;;;;;5071432;28;20865;-71
2023/06/30 01:21:50;;;;;;;3.20;2.90;;;19.10;99.90;;;;;;5071361;28;20460;-71
2023/06/30 01:24:18;;;;;;;4.57;4.17;;;19.10;99.90;;;;;;5071228;28;20461;-71
2023/06/30 01:26:45;;;;;;;3.93;3.63;;;19.00;99.90;;;;;;5070728;28;20467;-71
2023/06/30 01:29:14;;;;;;;4.07;3.77;;;19.00;99.90;;;;;;5071270;28;20460;-71
2023/06/30 01:31:43;;;;;;;3.90;3.50;;;19.00;99.90;;;;;;5071111;28;20484;-71
2023/06/30 01:34:10;;;;;;;3.53;3.23;;;18.90;99.90;;;;;;5071054;28;20458;-70
2023/06/30 01:36:36;;;;;;;4.00;3.50;;;18.90;99.90;;;;;;5070490;28;20466;-71
2023/06/30 01:39:03;;;;;;;4.30;3.90;;;18.90;99.90;;;;;;5070935;28;20488;-71
2023/06/30 01:41:30;;;;;;;4.07;3.67;;;18.80;99.90;;;;;;5071084;28;20474;-71
2023/06/30 01:43:57;;;;;;;4.37;3.87;;;18.80;99.90;;;;;;5070800;28;20472;-71
2023/06/30 01:46:25;;;;;;;4.53;4.00;;;18.80;99.90;;;;;;5069664;28;20945;-71
2023/06/30 01:48:52;;;;;;;4.90;3.47;;;18.80;99.90;;;;;;5071252;28;20482;-71
2023/06/30 01:51:19;;;;;;;4.10;3.70;;;18.70;99.90;;;;;;5072122;28;20467;-71
2023/06/30 01:53:46;;;;;;;3.90;3.60;;;18.70;99.90;;;;;;5071914;28;20466;-71
2023/06/30 01:56:13;;;;;;;4.17;3.80;;;18.60;99.90;;;;;;5070589;28;20470;-71
2023/06/30 01:58:40;;;;;;;4.87;4.40;;;18.60;99.90;;;;;;5070613;28;20492;-71
2023/06/30 02:01:06;;;;;;;4.10;3.80;;;18.60;99.90;;;;;;5070706;28;20465;-71
2023/06/30 02:03:35;;;;;;;3.70;3.40;;;18.60;99.90;;;;;;5070367;28;21223;-71
2023/06/30 02:06:03;;;;;;;3.80;3.27;;;18.50;99.90;;;;;;5070137;28;20469;-71
2023/06/30 02:08:29;;;;;;;4.50;4.10;;;18.50;99.90;;;;;;5070441;28;20472;-71
2023/06/30 02:10:56;;;;;;;3.50;3.30;;;18.50;99.90;;;;;;5070498;28;20516;-71
2023/06/30 02:13:23;;;;;;;9.30;4.20;;;18.50;99.90;;;;;;5070551;28;20462;-71
2023/06/30 02:15:49;;;;;;;3.93;3.53;;;18.50;99.90;;;;;;5070014;28;20465;-70
2023/06/30 02:18:16;;;;;;;4.30;3.90;;;18.40;99.90;;;;;;5070266;28;20488;-71
2023/06/30 02:20:44;;;;;;;3.73;3.33;;;18.40;99.90;;;;;;5070428;28;20461;-71
2023/06/30 02:23:11;;;;;;;4.30;3.90;;;18.40;99.90;;;;;;5070182;28;20470;-71
2023/06/30 02:25:37;;;;;;;5.53;4.17;;;18.30;99.90;;;;;;5070059;28;20468;-70
2023/06/30 02:28:04;;;;;;;4.43;3.60;;;18.30;99.90;;;;;;5069968;28;20482;-71
2023/06/30 02:30:31;;;;;;;3.77;3.47;;;18.30;99.90;;;;;;5070268;28;20483;-70
2023/06/30 02:32:58;;;;;;;4.57;4.13;;;18.20;99.90;;;;;;5069826;28;20472;-70
2023/06/30 02:35:25;;;;;;;3.83;3.53;;;18.20;99.90;;;;;;5069917;28;20464;-71
2023/06/30 02:37:53;;;;;;;4.97;3.43;;;18.20;99.90;;;;;;5069693;28;20504;-71
2023/06/30 02:40:20;;;;;;;3.70;3.40;;;18.10;99.90;;;;;;5070074;28;20486;-71
2023/06/30 02:42:47;;;;;;;5.53;3.63;;;18.20;99.90;;;;;;5069714;28;20456;-71
2023/06/30 02:45:13;;;;;;;4.50;4.10;;;18.10;99.90;;;;;;5069654;28;20463;-71
2023/06/30 02:47:40;;;;;;;4.00;3.50;;;18.10;99.90;;;;;;5069654;28;20492;-71
2023/06/30 02:50:08;;;;;;;3.70;3.40;;;18.10;99.90;;;;;;5070028;28;20468;-71
2023/06/30 02:52:35;;;;;;;4.37;3.50;;;18.10;99.90;;;;;;5070030;28;20461;-71
2023/06/30 02:55:03;;;;;;;4.70;3.70;;;18.10;99.90;;;;;;5069728;28;20456;-71
2023/06/30 02:57:30;;;;;;;7.50;4.43;;;18.10;99.90;;;;;;5069714;28;20475;-71
2023/06/30 02:59:56;;;;;;;4.57;4.17;;;18.10;99.90;;;;;;5073939;28;20487;-71
2023/06/30 03:02:23;;;;;;;4.33;3.93;;;18.10;99.90;;;;;;5073970;28;20834;-71
2023/06/30 03:04:50;;;;;;;4.13;3.73;;;18.20;99.90;;;;;;5073810;28;20848;-71
2023/06/30 03:07:17;;;;;;;3.90;3.60;;;18.20;99.90;;;;;;5073463;28;20480;-71
2023/06/30 03:09:44;;;;;;;4.07;3.77;;;18.20;99.90;;;;;;5073927;28;20496;-71
2023/06/30 03:12:12;;;;;;;4.03;3.67;;;18.20;99.90;;;;;;5073874;28;20470;-71
2023/06/30 03:14:39;;;;;;;4.20;3.80;;;18.20;99.90;;;;;;5073905;28;20455;-71
2023/06/30 03:17:06;;;;;;;4.83;4.43;;;18.10;99.90;;;;;;5072976;28;20490;-71
2023/06/30 03:19:32;;;;;;;4.10;3.80;;;18.10;99.90;;;;;;5073619;28;20476;-71
2023/06/30 03:21:59;;;;;;;4.43;3.57;;;18.10;99.90;;;;;;5073525;28;20462;-71
2023/06/30 03:24:26;;;;;;;4.00;3.70;;;18.10;99.90;;;;;;5073698;28;20496;-70
2023/06/30 03:26:53;;;;;;;4.33;3.80;;;18.00;99.90;;;;;;5073066;28;20987;-70
2023/06/30 03:29:21;;;;;;;3.87;3.57;;;18.10;99.90;;;;;;5073892;28;20459;-70
2023/06/30 03:31:47;;;;;;;4.00;3.57;;;18.00;99.90;;;;;;5073365;28;20995;-70
2023/06/30 03:34:14;;;;;;;3.80;3.50;;;18.00;99.90;;;;;;5073430;28;20485;-71
2023/06/30 03:36:41;;;;;;;4.33;3.93;;;18.00;99.90;;;;;;5060342;28;20463;-70
2023/06/30 03:39:08;;;;;;;4.20;3.80;;;18.00;99.90;;;;;;5052838;28;20487;-70
2023/06/30 03:41:34;;;;;;;4.30;3.90;;;18.10;99.90;;;;;;5053074;28;20462;-71
2023/06/30 03:44:01;;;;;;;4.70;4.30;;;18.00;99.90;;;;;;5053247;28;20533;-71
2023/06/30 03:46:32;;;;;;;3.73;3.43;;;18.00;99.90;;;;;;5055337;28;20465;-71
2023/06/30 03:48:58;;;;;;;4.07;3.73;;;18.00;99.90;;;;;;5054108;28;20457;-71
2023/06/30 03:51:25;;;;;;;3.43;3.23;;;18.00;99.90;;;;;;5052836;28;20835;-71
2023/06/30 03:53:52;;;;;;;4.07;3.67;;;18.00;99.90;;;;;;5052666;28;20467;-71
2023/06/30 03:56:18;;;;;;;4.77;4.27;;;18.00;99.90;;;;;;5051923;28;20839;-71
2023/06/30 03:58:46;;;;;;;5.27;3.60;;;18.00;99.90;;;;;;5052295;28;20484;-71
2023/06/30 04:01:13;;;;;;;4.23;3.83;;;17.90;99.90;;;;;;5052635;28;20460;-71
2023/06/30 04:03:41;;;;;;;4.50;3.80;;;17.90;99.90;;;;;;5052254;28;20472;-71
2023/06/30 04:06:07;;;;;;;4.30;3.83;;;17.90;99.90;;;;;;5051773;28;20463;-71
2023/06/30 04:08:34;;;;;;;5.10;4.60;;;17.90;99.90;;;;;;5052278;28;20477;-71
2023/06/30 04:11:01;;;;;;;4.60;4.20;;;17.90;99.90;;;;;;5051602;28;20468;-71
2023/06/30 04:13:27;;;;;;;4.87;4.17;;;17.90;99.90;;;;;;5052319;28;20459;-70
2023/06/30 04:15:54;;;;;;;3.97;3.67;;;17.90;99.90;;;;;;5051771;28;20467;-71
2023/06/30 04:18:21;;;;;;;4.73;4.10;;;18.00;99.90;;;;;;5054618;28;20484;-71
2023/06/30 04:20:49;;;;;;;3.93;3.60;;;18.00;99.90;;;;;;5052086;28;20485;-71
2023/06/30 04:23:16;;;;;;;4.00;3.50;;;18.00;99.90;;;;;;5052286;28;20884;-71
2023/06/30 04:25:43;;;;;;;3.70;3.40;;;18.10;99.90;;;;;;5051935;28;20457;-71
2023/06/30 04:28:09;;;;;;;4.00;3.70;;;18.20;99.90;;;;;;5051600;28;20487;-70
2023/06/30 04:30:36;;;;;;;6.47;3.83;;;18.30;99.90;;;;;;5051194;28;20452;-71
2023/06/30 04:33:03;;;;;;;5.30;3.80;;;18.40;99.90;;;;;;5050251;28;20812;-70
2023/06/30 04:35:29;;;;;;;4.53;4.13;;;18.40;99.90;;;;;;5049051;28;20845;-71
2023/06/30 04:37:57;;;;;;;5.80;3.90;;;18.50;99.90;;;;;;5049264;28;20483;-71
2023/06/30 04:40:25;;;;;;;3.90;3.60;;;18.50;99.90;;;;;;5049282;28;20474;-71
2023/06/30 04:42:52;;;;;;;3.67;3.37;;;18.50;99.90;;;;;;5049508;28;20464;-71
2023/06/30 04:45:18;;;;;;;4.50;4.10;;;18.60;99.90;;;;;;5049371;28;20457;-71
2023/06/30 04:47:45;;;;;;;5.93;3.47;;;18.60;99.90;;;;;;5050455;28;20483;-71
2023/06/30 04:50:12;;;;;;;3.30;3.00;;;18.60;99.90;;;;;;5052864;28;20457;-71
2023/06/30 04:52:39;;;;;;;4.83;4.30;;;18.70;99.90;;;;;;5052562;28;20461;-71
2023/06/30 04:55:07;;;;;;;4.30;3.80;;;18.70;99.90;;;;;;5052703;28;20476;-71
2023/06/30 04:57:34;;;;;;;3.90;3.50;;;18.70;99.90;;;;;;5053315;28;20477;-71
2023/06/30 05:00:01;;;;;;;5.40;4.40;;;18.80;99.90;;;;;;5053372;28;20490;-71
2023/06/30 05:02:28;;;;;;;4.80;4.40;;;18.80;99.90;;;;;;5053258;28;20465;-71
2023/06/30 05:04:54;;;;;;;4.40;4.00;;;18.80;99.90;;;;;;5052028;28;20475;-71
2023/06/30 05:07:21;;;;;;;4.00;3.60;;;18.90;99.90;;;;;;5051579;28;20500;-71
2023/06/30 05:09:48;;;;;;;4.70;4.30;;;18.90;99.90;;;;;;5051610;28;20467;-71
2023/06/30 05:12:16;;;;;;;4.60;4.20;;;18.90;99.90;;;;;;5051629;28;20462;-71
2023/06/30 05:14:43;;;;;;;4.07;3.67;;;18.80;99.90;;;;;;5053571;28;20465;-71
2023/06/30 05:17:09;;;;;;;6.47;5.87;;;18.80;99.90;;;;;;5070458;28;20483;-71
2023/06/30 05:19:36;;;;;;;6.80;4.30;;;18.80;99.90;;;;;;5071330;28;20855;-71
2023/06/30 05:22:03;;;;;;;6.23;4.50;;;18.70;99.90;;;;;;5070633;28;20499;-70
2023/06/30 05:24:30;;;;;;;5.37;4.83;;;18.70;99.90;;;;;;5071563;28;20464;-71
2023/06/30 05:26:57;;;;;;;5.50;4.80;;;18.70;99.90;;;;;;5070648;28;20479;-72
2023/06/30 05:29:25;;;;;;;8.20;5.17;;;18.60;99.90;;;;;;5071338;28;20456;-72
2023/06/30 05:31:52;;;;;;;5.60;5.10;;;18.50;99.90;;;;;;5071138;28;20457;-71
2023/06/30 05:34:18;;;;;;;5.43;4.90;;;18.40;99.90;;;;;;5071120;28;20465;-71
2023/06/30 05:36:45;;;;;;;5.53;5.03;;;18.40;99.90;;;;;;5070254;28;20457;-72
2023/06/30 05:39:13;;;;;;;5.93;5.00;;;18.40;99.90;;;;;;5071094;28;20464;-71
2023/06/30 05:41:41;;;;;;;5.37;4.87;;;18.30;99.90;;;;;;5070927;28;20456;-71
2023/06/30 05:44:08;;;;;;;5.53;5.07;;;18.30;99.90;;;;;;5057804;28;20468;-71
2023/06/30 05:46:37;;;;;;;5.00;4.60;;;18.30;99.90;;;;;;5050190;28;20461;-71
2023/06/30 05:49:05;;;;;;;7.40;5.80;;;18.30;99.90;;;;;;5051024;28;20471;-72
2023/06/30 05:51:32;;;;;;;5.50;4.90;;;18.20;99.90;;;;;;5050899;28;20564;-71
2023/06/30 05:53:59;;;;;;;5.27;4.77;;;18.20;99.90;;;;;;5050805;28;20512;-71
2023/06/30 05:56:25;;;;;;;5.60;5.10;;;18.10;99.90;;;;;;5050245;28;20462;-71
2023/06/30 05:58:52;;;;;;;6.33;5.27;;;18.10;99.90;;;;;;5047586;28;20486;-71
2023/06/30 06:01:20;;;;;;;6.30;5.33;;;18.10;99.90;;;;;;5049211;28;20481;-71
2023/06/30 06:03:48;;;;;;;5.93;5.20;;;18.10;99.90;;;;;;5046741;28;20484;-71
2023/06/30 06:06:15;;;;;;;6.07;5.40;;;18.00;99.90;;;;;;5049923;28;20464;-71
2023/06/30 06:08:46;;;;;;;6.63;4.80;;;18.10;99.90;;;;;;5049685;28;20481;-71
2023/06/30 06:11:13;;;;;;;5.47;5.07;;;18.10;99.90;;;;;;5050342;28;20514;-71
2023/06/30 06:13:40;;;;;;;6.30;5.80;;;18.10;99.90;;;;;;5050090;28;20461;-72
2023/06/30 06:16:08;;;;;;;5.33;4.57;;;18.10;99.90;;;;;;5049789;28;20471;-71
2023/06/30 06:18:35;;;;;;;6.00;5.50;;;18.10;99.90;;;;;;5049951;28;20530;-72
2023/06/30 06:21:04;;;;;;;7.63;6.00;;;18.10;99.90;;;;;;5050425;28;20479;-71
2023/06/30 06:23:31;;;;;;;7.93;6.10;;;18.10;99.90;;;;;;5050359;28;20489;-71
2023/06/30 06:25:57;;;;;;;6.50;5.60;;;18.10;99.90;;;;;;5049633;28;20868;-71
2023/06/30 06:28:24;;;;;;;7.67;6.90;;;18.10;99.90;;;;;;5050237;28;20477;-71
2023/06/30 06:30:51;;;;;;;6.97;5.50;;;18.10;99.90;;;;;;5049984;28;20452;-71
2023/06/30 06:33:17;;;;;;;7.30;6.60;;;18.10;99.90;;;;;;5050247;28;20460;-72
2023/06/30 06:35:44;;;;;;;7.50;6.70;;;18.10;99.90;;;;;;5051029;28;20463;-71
2023/06/30 06:38:12;;;;;;;6.17;5.47;;;18.10;99.90;;;;;;5059316;28;20491;-72
2023/06/30 06:40:39;;;;;;;7.10;6.20;;;18.10;99.90;;;;;;5048124;28;20486;-72
2023/06/30 06:43:05;;;;;;;7.33;5.90;;;18.10;99.90;;;;;;5048603;28;21185;-72
2023/06/30 06:45:32;;;;;;;5.93;5.37;;;18.10;99.90;;;;;;5048462;28;20545;-71
2023/06/30 06:48:19;;;;;;;7.90;5.90;;;18.00;99.90;;;;;;5047814;28;20483;-71
2023/06/30 06:50:47;;;;;;;6.60;5.53;;;18.10;99.90;;;;;;5048961;28;20452;-72
2023/06/30 06:53:19;;;;;;;6.63;5.77;;;18.10;99.90;;;;;;5048940;28;20471;-72
2023/06/30 06:55:46;;;;;;;6.60;5.50;;;18.20;99.90;;;;;;5048412;28;20519;-72
2023/06/30 06:58:13;;;;;;;7.50;6.07;;;18.30;99.90;;;;;;5049072;28;20527;-72
2023/06/30 07:00:40;;;;;;;9.27;7.13;;;18.40;99.90;;;;;;5048173;28;20566;-71
2023/06/30 07:03:07;;;;;;;10.93;6.80;;;18.50;99.90;;;;;;5048894;28;20828;-71
2023/06/30 07:05:33;;;;;;;7.40;6.27;;;18.50;99.90;;;;;;5048661;28;20469;-71
2023/06/30 07:08:00;;;;;;;8.23;6.30;;;18.50;99.90;;;;;;5047943;28;20486;-72
2023/06/30 07:10:29;;;;;;;6.40;5.80;;;18.50;99.90;;;;;;5049129;28;20480;-72
2023/06/30 07:12:55;;;;;;;7.33;6.30;;;18.60;99.90;;;;;;5047903;28;20469;-72
2023/06/30 07:15:22;;;;;;;6.90;6.00;;;18.60;99.90;;;;;;5048319;28;20465;-71
2023/06/30 07:17:49;;;;;;;7.40;6.63;;;18.60;99.90;;;;;;5047993;28;20480;-71
2023/06/30 07:20:15;;;;;;;6.17;5.53;;;18.70;99.90;;;;;;5048699;28;20489;-71
2023/06/30 07:22:42;;;;;;;7.60;6.03;;;18.70;99.90;;;;;;5048185;28;20485;-71
2023/06/30 07:25:09;;;;;;;7.77;6.97;;;18.70;99.90;;;;;;5047856;28;20486;-71
2023/06/30 07:27:38;;;;;;;7.53;6.70;;;18.60;99.90;;;;;;5048812;28;20790;-70
2023/06/30 07:30:06;;;;;;;7.17;5.70;;;18.50;99.90;;;;;;5067780;28;20464;-70
2023/06/30 07:32:34;;;;;;;6.97;6.33;;;18.50;99.90;;;;;;5068629;28;20468;-70
2023/06/30 07:35:02;;;;;;;8.23;6.97;;;18.50;99.90;;;;;;5068057;28;20821;-70
2023/06/30 07:37:29;;;;;;;8.93;6.97;;;18.60;99.90;;;;;;5067899;28;21082;-70
2023/06/30 07:39:56;;;;;;;8.67;6.50;;;18.60;99.90;;;;;;5067784;28;20466;-71
2023/06/30 07:42:23;;;;;;;8.53;6.30;;;18.50;99.90;;;;;;5068833;28;20459;-70
2023/06/30 07:44:51;;;;;;;9.50;6.80;;;18.60;99.90;;;;;;5067920;28;20472;-70
2023/06/30 07:47:18;;;;;;;9.57;6.80;;;18.60;99.90;;;;;;5071355;28;20483;-71
2023/06/30 07:49:45;;;;;;;9.27;7.40;;;18.60;99.90;;;;;;5071682;28;20906;-70
2023/06/30 07:52:12;;;;;;;7.30;6.37;;;18.60;99.90;;;;;;5071707;28;20461;-72
2023/06/30 07:54:40;;;;;;;8.50;6.93;;;18.60;99.90;;;;;;5071543;28;20468;-72
2023/06/30 07:57:06;;;;;;;9.83;7.30;;;18.60;99.90;;;;;;5068944;28;20487;-70
2023/06/30 07:59:33;;;;;;;9.43;7.30;;;18.60;99.90;;;;;;5050173;28;20465;-71
2023/06/30 08:02:01;;;;;;;10.40;6.73;;;18.60;99.90;;;;;;5050900;28;20484;-72
2023/06/30 08:04:28;;;;;;;10.13;8.07;;;18.60;99.90;;;;;;5051228;28;20470;-70
2023/06/30 08:06:55;;;;;;;8.40;6.20;;;18.60;99.90;;;;;;5050652;28;20983;-73
2023/06/30 08:09:22;;;;;;;11.30;7.30;;;18.60;99.90;;;;;;5051297;28;20497;-73
2023/06/30 08:11:48;;;;;;;13.00;7.80;;;18.50;99.90;;;;;;5050763;28;20841;-71
2023/06/30 08:14:15;;;;;;;10.17;7.90;;;18.50;99.90;;;;;;5064939;28;20468;-71
2023/06/30 08:16:42;;;;;;;11.47;7.50;;;18.50;99.90;;;;;;5070019;28;21004;-72
2023/06/30 08:19:10;;;;;;;11.50;7.63;;;18.50;99.90;;;;;;5062721;28;20474;-72
2023/06/30 08:21:36;;;;;;;11.00;7.77;;;18.50;99.90;;;;;;5070069;28;21011;-71
2023/06/30 08:24:03;;;;;;;11.67;8.00;;;18.50;99.90;;;;;;5070155;28;20465;-72
2023/06/30 08:26:30;;;;;;;11.93;6.93;;;18.50;99.90;;;;;;5054282;28;20867;-72
2023/06/30 08:28:57;;;;;;;12.27;7.60;;;18.60;99.90;;;;;;5050362;28;20468;-72
2023/06/30 08:31:23;;;;;;;11.60;8.10;;;18.60;99.90;;;;;;5049981;28;20469;-71
2023/06/30 08:33:50;;;;;;;10.60;8.13;;;18.60;99.90;;;;;;5051439;28;20474;-71
2023/06/30 08:36:18;;;;;;;11.80;8.67;;;18.60;99.90;;;;;;5065153;28;20466;-73
2023/06/30 08:38:45;;;;;;;9.50;7.57;;;18.70;99.90;;;;;;5062792;28;20991;-72
2023/06/30 08:41:13;;;;;;;13.07;7.90;;;18.70;99.90;;;;;;5063456;28;20481;-72
2023/06/30 08:43:42;;;;;;;8.67;6.80;;;18.70;99.90;;;;;;5050321;28;20772;-71
2023/06/30 08:46:12;;;;;;;10.47;7.43;;;18.70;99.90;;;;;;5050604;28;20461;-72
2023/06/30 08:48:41;;;;;;;10.80;7.27;;;18.70;99.90;;;;;;5060127;28;20491;-71
2023/06/30 08:51:08;;;;;;;10.53;7.40;;;18.70;99.90;;;;;;5070822;28;20966;-72
2023/06/30 08:53:37;;;;;;;11.23;7.67;;;18.60;99.90;;;;;;5071205;28;20464;-72
2023/06/30 08:56:06;;;;;;;14.20;8.63;;;18.60;99.90;;;;;;5066224;28;20506;-72
2023/06/30 08:58:33;;;;;;;10.00;7.50;;;18.60;99.90;;;;;;5050708;28;20481;-71
2023/06/30 09:01:00;;;;;;;12.87;9.10;;;18.60;99.90;;;;;;5050316;28;20486;-72
2023/06/30 09:03:28;;;;;;;11.60;8.33;;;18.50;99.90;;;;;;5058782;28;20540;-72
2023/06/30 09:05:57;;;;;;;8.97;7.07;;;18.50;99.90;;;;;;5051911;28;20525;-71
2023/06/30 09:08:29;;;;;;;10.40;8.73;;;18.40;99.90;;;;;;5051285;28;20518;-72
2023/06/30 09:10:58;;;;;;;10.03;7.70;;;18.40;99.90;;;;;;5068421;28;20527;-71
2023/06/30 09:13:25;;;;;;;9.77;6.73;;;18.40;99.90;;;;;;5070587;28;20465;-72
2023/06/30 09:15:57;;;;;;;8.77;6.87;;;18.40;99.90;;;;;;5069916;28;20560;-71
2023/06/30 09:18:25;;;;;;;12.57;7.63;;;18.40;99.90;;;;;;5063718;28;20488;-72
2023/06/30 09:20:53;;;;;;;10.17;7.70;;;18.40;99.90;;;;;;5050295;28;20538;-71
2023/06/30 09:23:21;;;;;;;11.00;7.50;;;18.40;99.90;;;;;;5050784;28;20958;-72
2023/06/30 09:25:48;;;;;;;10.37;7.30;;;18.40;99.90;;;;;;5049033;28;20544;-71
2023/06/30 09:28:16;;;;;;;9.40;7.10;;;18.40;99.90;;;;;;5049816;28;20484;-71
2023/06/30 09:30:47;;;;;;;10.10;7.07;;;18.50;99.90;;;;;;5049854;28;20456;-71
2023/06/30 09:33:15;;;;;;;9.27;7.17;;;18.50;99.90;;;;;;5050509;28;20467;-71
2023/06/30 09:35:44;;;;;;;9.53;7.63;;;18.50;99.90;;;;;;5049585;28;20465;-71
2023/06/30 09:38:12;;;;;;;10.40;6.77;;;18.50;99.90;;;;;;5049643;28;20492;-71
2023/06/30 09:40:42;;;;;;;11.43;7.20;;;18.60;99.90;;;;;;5049804;28;20514;-71
2023/06/30 09:43:09;;;;;;;8.73;6.70;;;18.60;99.90;;;;;;5049525;28;20474;-72
2023/06/30 09:45:37;;;;;;;9.50;6.63;;;18.60;99.90;;;;;;5049478;28;20471;-71
2023/06/30 09:48:04;;;;;;;6.70;5.63;;;18.60;99.90;;;;;;5049591;28;20485;-71
2023/06/30 09:50:32;;;;;;;9.20;7.07;;;18.60;99.90;;;;;;5049111;28;20472;-71
2023/06/30 09:52:59;;;;;;;8.03;6.20;;;18.60;99.90;;;;;;5049689;28;20490;-71
2023/06/30 09:55:26;;;;;;;7.90;6.83;;;18.60;99.90;;;;;;5049601;28;20962;-71
2023/06/30 09:57:56;;;;;;;7.90;6.63;;;18.70;99.90;;;;;;5048673;28;20849;-71
2023/06/30 10:00:25;;;;;;;7.87;6.20;;;18.70;99.90;;;;;;5049911;28;20840;-71
2023/06/30 10:03:03;;;;;;;10.13;7.20;;;18.70;99.90;;;;;;5048589;28;21373;-72
2023/06/30 10:05:30;;;;;;;8.90;6.00;;;18.80;99.90;;;;;;5049091;28;20458;-72
2023/06/30 10:07:58;;;;;;;7.33;5.47;;;18.80;99.90;;;;;;5048527;28;20481;-72
2023/06/30 10:10:26;;;;;;;8.80;6.27;;;18.80;99.90;;;;;;5049567;28;20470;-72
2023/06/30 10:12:54;;;;;;;8.67;6.40;;;18.80;99.90;;;;;;5048718;28;20465;-72
2023/06/30 10:15:21;;;;;;;8.37;6.07;;;18.70;99.90;;;;;;5049093;28;20466;-72
2023/06/30 10:17:48;;;;;;;11.87;7.77;;;18.70;99.90;;;;;;5048727;28;20482;-72
2023/06/30 10:20:17;;;;;;;7.73;6.13;;;18.70;99.90;;;;;;5049006;28;20869;-72
2023/06/30 10:22:45;;;;;;;7.50;5.97;;;18.70;99.90;;;;;;5048827;28;20535;-72
2023/06/30 10:25:14;;;;;;;7.63;5.77;;;18.80;99.90;;;;;;5048952;28;20824;-72
2023/06/30 10:27:42;;;;;;;8.37;6.63;;;18.80;99.90;;;;;;5046773;28;20492;-72
2023/06/30 10:30:10;;;;;;;9.00;6.40;;;18.80;99.90;;;;;;5048651;28;20472;-71
2023/06/30 10:32:37;;;;;;;7.50;6.23;;;18.90;99.90;;;;;;5048107;28;21024;-71
2023/06/30 10:35:04;;;;;;;8.27;7.37;;;18.90;99.90;;;;;;5048012;28;20456;-71
2023/06/30 10:37:32;;;;;;;7.10;6.03;;;18.90;99.90;;;;;;5048453;28;20479;-71
2023/06/30 10:39:59;;;;;;;10.47;6.50;;;18.90;99.90;;;;;;5040598;28;20466;-71
2023/06/30 10:42:27;;;;;;;6.87;6.00;;;18.90;99.90;;;;;;5048029;28;20477;-72
2023/06/30 10:44:59;;;;;;;10.87;7.70;;;18.90;99.90;;;;;;5048613;28;20464;-71
2023/06/30 10:47:28;;;;;;;12.00;7.40;;;18.90;99.90;;;;;;5046465;28;20517;-72
2023/06/30 10:49:56;;;;;;;9.60;7.60;;;18.90;99.90;;;;;;5048785;28;20466;-71
2023/06/30 10:52:26;;;;;;;12.00;8.40;;;18.90;99.90;;;;;;5048311;28;20464;-71
2023/06/30 10:54:55;;;;;;;11.70;8.20;;;18.90;99.90;;;;;;5048904;28;20479;-72
2023/06/30 10:57:24;;;;;;;9.60;8.03;;;18.90;99.90;;;;;;5049411;28;20486;-71
2023/06/30 11:00:05;;;;;;;11.10;8.50;;;18.90;99.90;;;;;;5049214;28;20873;-71
2023/06/30 11:02:33;;;;;;;13.50;8.77;;;19.00;99.90;;;;;;5049523;28;20485;-71
2023/06/30 11:05:19;;;;;;;8.20;7.27;;;19.00;99.90;;;;;;5041027;28;20465;-71
2023/06/30 11:07:47;;;;;;;9.63;7.80;;;19.00;99.90;;;;;;5049241;28;20974;-71
2023/06/30 11:10:26;;;;;;;12.47;10.13;;;19.10;99.90;;;;;;5049395;28;20854;-71
2023/06/30 11:12:55;;;;;;;11.77;9.03;;;19.10;99.90;;;;;;5049417;28;20495;-71
2023/06/30 11:15:46;;;;;;;14.40;10.20;;;19.20;99.90;;;;;;5049168;28;20845;-71
2023/06/30 11:18:14;;;;;;;14.33;11.27;;;19.30;99.90;;;;;;5034422;28;20488;-72
2023/06/30 11:20:58;;;;;;;12.83;10.23;;;19.30;99.90;;;;;;5051140;28;20465;-71
2023/06/30 11:23:27;;;;;;;13.37;9.57;;;19.30;99.90;;;;;;5053709;28;20804;-71
2023/06/30 11:25:57;;;;;;;13.40;11.00;;;19.40;99.90;;;;;;5051982;28;20457;-72
2023/06/30 11:28:25;;;;;;;16.30;11.27;;;19.40;99.90;;;;;;5052663;28;20906;-71
2023/06/30 11:30:52;;;;;;;14.03;10.40;;;19.40;99.90;;;;;;5052946;28;20543;-72
2023/06/30 11:33:19;;;;;;;13.23;11.00;;;19.40;99.90;;;;;;5067784;28;20459;-71
2023/06/30 11:35:52;;;;;;;15.90;11.80;;;19.40;99.90;;;;;;5072256;28;20943;-71
2023/06/30 11:38:19;;;;;;;15.93;12.07;;;19.40;99.90;;;;;;5058116;28;20483;-71
2023/06/30 11:40:46;;;;;;;14.63;11.50;;;19.40;99.90;;;;;;5062076;28;20948;-71
2023/06/30 11:43:14;;;;;;;16.00;11.40;;;19.50;99.90;;;;;;5059566;28;20587;-71
2023/06/30 11:45:41;;;;;;;15.70;11.13;;;19.60;99.90;;;;;;5051633;28;20454;-72
2023/06/30 11:48:08;;;;;;;15.03;11.27;;;19.80;99.90;;;;;;5051846;28;20516;-71
2023/06/30 11:50:34;;;;;;;15.67;11.87;;;19.80;99.90;;;;;;5051980;28;20463;-71
2023/06/30 11:53:02;;;;;;;13.37;9.87;;;19.90;99.90;;;;;;5050249;28;20846;-71
2023/06/30 11:55:29;;;;;;;14.77;11.47;;;19.80;99.90;;;;;;5051455;28;20469;-72
2023/06/30 11:57:55;;;;;;;13.10;9.77;;;19.90;99.90;;;;;;5050683;28;20967;-72
2023/06/30 12:00:25;;;;;;;13.67;11.43;;;19.90;99.90;;;;;;5051338;28;20504;-72
2023/06/30 12:02:51;;;;;;;14.50;10.90;;;19.80;99.90;;;;;;5051424;28;20484;-71
2023/06/30 12:05:21;;;;;;;18.10;12.03;;;19.80;99.90;;;;;;5053157;28;20474;-72
2023/06/30 12:07:52;;;;;;;16.70;11.80;;;19.80;99.90;;;;;;5052399;28;20513;-72
2023/06/30 12:10:19;;;;;;;15.93;10.43;;;19.80;99.90;;;;;;5052950;28;20816;-71
2023/06/30 12:12:55;;;;;;;13.80;10.43;;;19.80;99.90;;;;;;5070432;28;20496;-71
2023/06/30 12:15:22;;;;;;;15.40;11.30;;;19.90;99.90;;;;;;5065340;28;20548;-72
2023/06/30 12:17:54;;;;;;;13.70;11.07;;;19.90;99.90;;;;;;5052090;28;20512;-72
2023/06/30 12:20:22;;;;;;;16.27;11.43;;;19.90;99.90;;;;;;5051845;28;20462;-72
2023/06/30 12:22:52;;;;;;;12.83;10.83;;;20.00;99.90;;;;;;5053657;28;20478;-72
2023/06/30 12:25:19;;;;;;;15.37;10.90;;;20.00;99.90;;;;;;5072777;28;20461;-72
2023/06/30 12:27:45;;;;;;;13.27;9.43;;;20.00;99.90;;;;;;5072373;28;20482;-72
2023/06/30 12:30:16;;;;;;;13.57;10.00;;;20.10;99.90;;;;;;5058906;28;20464;-71
2023/06/30 12:32:43;;;;;;;16.37;10.33;;;20.20;99.90;;;;;;5060159;28;20463;-72
2023/06/30 12:35:11;;;;;;;16.33;11.47;;;20.20;99.90;;;;;;5066126;28;21161;-72
2023/06/30 12:37:38;;;;;;;15.93;11.60;;;20.40;99.90;;;;;;5071922;28;20869;-72
2023/06/30 12:40:07;;;;;;;16.90;11.37;;;20.40;99.90;;;;;;5072342;28;20903;-72
2023/06/30 12:42:34;;;;;;;21.70;12.20;;;20.40;99.90;;;;;;5072184;28;20490;-72
2023/06/30 12:45:01;;;;;;;12.37;9.67;;;20.40;99.90;;;;;;5072207;28;20470;-72
2023/06/30 12:47:27;;;;;;;14.23;10.53;;;20.40;99.90;;;;;;5063856;28;20492;-72